sensor_id;sensor_type;location;lat;lon;timestamp;P1;P2;P0
57411;PMS5003;43247;52.828;-8.980;2024-01-16T00:00:59;88;86;
57411;PMS5003;43247;52.828;-8.980;2024-01-16T00:02:00;103;94;
57411;PMS5003;43247;52.828;-8.980;2024-01-16T00:03:01;92;85;
57411;PMS5003;43247;52.828;-8.980;2024-01-16T00:04:01;97;91;
57411;PMS5003;43247;52.828;-8.980;2024-01-16T00:05:02;98;89;
57411;PMS5003;43247;52.828;-8.980;2024-01-16T00:06:03;104;98;
57411;PMS5003;43247;52.828;-8.980;2024-01-16T00:07:03;97;94;
57411;PMS5003;43247;52.828;-8.980;2024-01-16T00:08:04;104;99;
57411;PMS5003;43247;52.828;-8.980;2024-01-16T00:09:05;102;100;
57411;PMS5003;43247;52.828;-8.980;2024-01-16T00:10:06;104;100;
57411;PMS5003;43247;52.828;-8.980;2024-01-16T00:11:05;110;105;
57411;PMS5003;43247;52.828;-8.980;2024-01-16T00:12:06;93;89;
57411;PMS5003;43247;52.828;-8.980;2024-01-16T00:13:05;94;86;
57411;PMS5003;43247;52.828;-8.980;2024-01-16T00:14:06;92;86;
57411;PMS5003;43247;52.828;-8.980;2024-01-16T00:15:07;92;86;
57411;PMS5003;43247;52.828;-8.980;2024-01-16T00:16:07;100;93;
57411;PMS5003;43247;52.828;-8.980;2024-01-16T00:17:07;108;102;
57411;PMS5003;43247;52.828;-8.980;2024-01-16T00:18:07;108;103;
57411;PMS5003;43247;52.828;-8.980;2024-01-16T00:19:07;119;108;
57411;PMS5003;43247;52.828;-8.980;2024-01-16T00:20:08;113;107;
57411;PMS5003;43247;52.828;-8.980;2024-01-16T00:21:08;109;105;
57411;PMS5003;43247;52.828;-8.980;2024-01-16T00:22:08;115;105;
57411;PMS5003;43247;52.828;-8.980;2024-01-16T00:23:08;105;99;
57411;PMS5003;43247;52.828;-8.980;2024-01-16T00:24:08;107;105;
57411;PMS5003;43247;52.828;-8.980;2024-01-16T00:25:09;122;105;
57411;PMS5003;43247;52.828;-8.980;2024-01-16T00:27:09;113;102;
57411;PMS5003;43247;52.828;-8.980;2024-01-16T00:28:10;113;105;
57411;PMS5003;43247;52.828;-8.980;2024-01-16T00:29:11;107;105;
57411;PMS5003;43247;52.828;-8.980;2024-01-16T00:30:11;114;104;
57411;PMS5003;43247;52.828;-8.980;2024-01-16T00:31:11;113;105;
57411;PMS5003;43247;52.828;-8.980;2024-01-16T00:32:12;115;110;
57411;PMS5003;43247;52.828;-8.980;2024-01-16T00:33:12;121;113;
57411;PMS5003;43247;52.828;-8.980;2024-01-16T00:34:13;115;111;
57411;PMS5003;43247;52.828;-8.980;2024-01-16T00:35:13;111;102;
57411;PMS5003;43247;52.828;-8.980;2024-01-16T00:36:14;116;105;
57411;PMS5003;43247;52.828;-8.980;2024-01-16T00:37:14;118;108;
57411;PMS5003;43247;52.828;-8.980;2024-01-16T00:38:15;110;106;
57411;PMS5003;43247;52.828;-8.980;2024-01-16T00:39:15;112;107;
57411;PMS5003;43247;52.828;-8.980;2024-01-16T00:40:16;112;99;
57411;PMS5003;43247;52.828;-8.980;2024-01-16T00:41:16;116;108;
57411;PMS5003;43247;52.828;-8.980;2024-01-16T00:42:16;105;103;
57411;PMS5003;43247;52.828;-8.980;2024-01-16T00:43:17;112;104;
57411;PMS5003;43247;52.828;-8.980;2024-01-16T00:44:17;111;106;
57411;PMS5003;43247;52.828;-8.980;2024-01-16T00:45:18;112;105;
57411;PMS5003;43247;52.828;-8.980;2024-01-16T00:46:18;105;101;
57411;PMS5003;43247;52.828;-8.980;2024-01-16T00:47:18;97;94;
57411;PMS5003;43247;52.828;-8.980;2024-01-16T00:48:19;99;92;
57411;PMS5003;43247;52.828;-8.980;2024-01-16T00:49:20;83;79;
57411;PMS5003;43247;52.828;-8.980;2024-01-16T00:50:20;92;84;
57411;PMS5003;43247;52.828;-8.980;2024-01-16T00:51:20;85;79;
57411;PMS5003;43247;52.828;-8.980;2024-01-16T00:52:21;90;85;
57411;PMS5003;43247;52.828;-8.980;2024-01-16T00:53:22;95;91;
57411;PMS5003;43247;52.828;-8.980;2024-01-16T00:54:23;93;86;
57411;PMS5003;43247;52.828;-8.980;2024-01-16T00:55:24;92;85;
57411;PMS5003;43247;52.828;-8.980;2024-01-16T00:56:24;94;84;
57411;PMS5003;43247;52.828;-8.980;2024-01-16T00:57:24;95;88;
57411;PMS5003;43247;52.828;-8.980;2024-01-16T00:58:24;92;87;
57411;PMS5003;43247;52.828;-8.980;2024-01-16T00:59:24;98;93;
57411;PMS5003;43247;52.828;-8.980;2024-01-16T01:00:25;88;83;
57411;PMS5003;43247;52.828;-8.980;2024-01-16T01:01:26;89;81;
57411;PMS5003;43247;52.828;-8.980;2024-01-16T01:02:26;88;82;
57411;PMS5003;43247;52.828;-8.980;2024-01-16T01:03:27;92;85;
57411;PMS5003;43247;52.828;-8.980;2024-01-16T01:04:27;91;90;
57411;PMS5003;43247;52.828;-8.980;2024-01-16T01:05:27;85;79;
57411;PMS5003;43247;52.828;-8.980;2024-01-16T01:06:28;84;80;
57411;PMS5003;43247;52.828;-8.980;2024-01-16T01:07:28;85;81;
57411;PMS5003;43247;52.828;-8.980;2024-01-16T01:08:29;94;81;
57411;PMS5003;43247;52.828;-8.980;2024-01-16T01:09:29;85;77;
57411;PMS5003;43247;52.828;-8.980;2024-01-16T01:10:29;87;81;
57411;PMS5003;43247;52.828;-8.980;2024-01-16T01:11:30;88;78;
57411;PMS5003;43247;52.828;-8.980;2024-01-16T01:12:30;80;76;
57411;PMS5003;43247;52.828;-8.980;2024-01-16T01:13:31;89;85;
57411;PMS5003;43247;52.828;-8.980;2024-01-16T01:14:31;81;78;
57411;PMS5003;43247;52.828;-8.980;2024-01-16T01:15:32;80;76;
57411;PMS5003;43247;52.828;-8.980;2024-01-16T01:16:32;84;77;
57411;PMS5003;43247;52.828;-8.980;2024-01-16T01:17:33;72;67;
57411;PMS5003;43247;52.828;-8.980;2024-01-16T01:18:33;76;72;
57411;PMS5003;43247;52.828;-8.980;2024-01-16T01:19:33;77;71;
57411;PMS5003;43247;52.828;-8.980;2024-01-16T01:20:34;72;68;
57411;PMS5003;43247;52.828;-8.980;2024-01-16T01:21:35;77;73;
57411;PMS5003;43247;52.828;-8.980;2024-01-16T01:22:34;81;74;
57411;PMS5003;43247;52.828;-8.980;2024-01-16T01:23:35;70;63;
57411;PMS5003;43247;52.828;-8.980;2024-01-16T01:24:35;60;57;
57411;PMS5003;43247;52.828;-8.980;2024-01-16T01:25:35;57;53;
57411;PMS5003;43247;52.828;-8.980;2024-01-16T01:26:36;58;52;
57411;PMS5003;43247;52.828;-8.980;2024-01-16T01:27:37;52;51;
57411;PMS5003;43247;52.828;-8.980;2024-01-16T01:28:37;56;52;
57411;PMS5003;43247;52.828;-8.980;2024-01-16T01:29:38;52;46;
57411;PMS5003;43247;52.828;-8.980;2024-01-16T01:30:38;55;50;
57411;PMS5003;43247;52.828;-8.980;2024-01-16T01:31:39;53;50;
57411;PMS5003;43247;52.828;-8.980;2024-01-16T01:32:39;53;51;
57411;PMS5003;43247;52.828;-8.980;2024-01-16T01:33:39;52;49;
57411;PMS5003;43247;52.828;-8.980;2024-01-16T01:34:41;55;51;
57411;PMS5003;43247;52.828;-8.980;2024-01-16T01:35:40;55;50;
57411;PMS5003;43247;52.828;-8.980;2024-01-16T01:36:40;52;46;
57411;PMS5003;43247;52.828;-8.980;2024-01-16T01:37:41;48;46;
57411;PMS5003;43247;52.828;-8.980;2024-01-16T01:38:41;46;45;
57411;PMS5003;43247;52.828;-8.980;2024-01-16T01:39:41;45;44;
57411;PMS5003;43247;52.828;-8.980;2024-01-16T01:40:42;47;46;
57411;PMS5003;43247;52.828;-8.980;2024-01-16T01:41:42;49;46;
57411;PMS5003;43247;52.828;-8.980;2024-01-16T01:42:43;47;45;
57411;PMS5003;43247;52.828;-8.980;2024-01-16T01:43:43;49;45;
57411;PMS5003;43247;52.828;-8.980;2024-01-16T01:44:43;45;43;
57411;PMS5003;43247;52.828;-8.980;2024-01-16T01:45:44;44;43;
57411;PMS5003;43247;52.828;-8.980;2024-01-16T01:46:44;45;42;
57411;PMS5003;43247;52.828;-8.980;2024-01-16T01:47:44;45;39;
57411;PMS5003;43247;52.828;-8.980;2024-01-16T01:48:46;42;42;
57411;PMS5003;43247;52.828;-8.980;2024-01-16T01:49:45;43;39;
57411;PMS5003;43247;52.828;-8.980;2024-01-16T01:50:46;42;38;
57411;PMS5003;43247;52.828;-8.980;2024-01-16T01:51:46;40;37;
57411;PMS5003;43247;52.828;-8.980;2024-01-16T01:52:47;41;38;
57411;PMS5003;43247;52.828;-8.980;2024-01-16T01:53:48;32;32;
57411;PMS5003;43247;52.828;-8.980;2024-01-16T01:54:48;41;39;
57411;PMS5003;43247;52.828;-8.980;2024-01-16T01:55:49;38;36;
57411;PMS5003;43247;52.828;-8.980;2024-01-16T01:56:49;40;37;
57411;PMS5003;43247;52.828;-8.980;2024-01-16T01:57:50;39;34;
57411;PMS5003;43247;52.828;-8.980;2024-01-16T01:58:53;34;34;
57411;PMS5003;43247;52.828;-8.980;2024-01-16T01:59:50;34;33;
57411;PMS5003;43247;52.828;-8.980;2024-01-16T02:00:51;30;29;
57411;PMS5003;43247;52.828;-8.980;2024-01-16T02:01:51;36;30;
57411;PMS5003;43247;52.828;-8.980;2024-01-16T02:02:51;31;30;
57411;PMS5003;43247;52.828;-8.980;2024-01-16T02:03:52;33;32;
57411;PMS5003;43247;52.828;-8.980;2024-01-16T02:04:52;36;29;
57411;PMS5003;43247;52.828;-8.980;2024-01-16T02:05:52;32;30;
57411;PMS5003;43247;52.828;-8.980;2024-01-16T02:06:53;30;29;
57411;PMS5003;43247;52.828;-8.980;2024-01-16T02:07:53;39;35;
57411;PMS5003;43247;52.828;-8.980;2024-01-16T02:08:53;35;33;
57411;PMS5003;43247;52.828;-8.980;2024-01-16T02:09:54;35;34;
57411;PMS5003;43247;52.828;-8.980;2024-01-16T02:10:54;38;35;
57411;PMS5003;43247;52.828;-8.980;2024-01-16T02:11:55;30;30;
57411;PMS5003;43247;52.828;-8.980;2024-01-16T02:12:55;33;33;
57411;PMS5003;43247;52.828;-8.980;2024-01-16T02:13:56;32;30;
57411;PMS5003;43247;52.828;-8.980;2024-01-16T02:14:57;34;33;
57411;PMS5003;43247;52.828;-8.980;2024-01-16T02:15:57;36;30;
57411;PMS5003;43247;52.828;-8.980;2024-01-16T02:16:58;32;29;
57411;PMS5003;43247;52.828;-8.980;2024-01-16T02:17:58;29;29;
57411;PMS5003;43247;52.828;-8.980;2024-01-16T02:18:59;33;31;
57411;PMS5003;43247;52.828;-8.980;2024-01-16T02:20:00;35;32;
57411;PMS5003;43247;52.828;-8.980;2024-01-16T02:21:00;33;30;
57411;PMS5003;43247;52.828;-8.980;2024-01-16T02:22:01;32;30;
57411;PMS5003;43247;52.828;-8.980;2024-01-16T02:23:03;27;27;
57411;PMS5003;43247;52.828;-8.980;2024-01-16T02:24:01;28;26;
57411;PMS5003;43247;52.828;-8.980;2024-01-16T02:25:02;32;28;
57411;PMS5003;43247;52.828;-8.980;2024-01-16T02:26:03;27;27;
57411;PMS5003;43247;52.828;-8.980;2024-01-16T02:27:04;31;31;
57411;PMS5003;43247;52.828;-8.980;2024-01-16T02:28:04;24;22;
57411;PMS5003;43247;52.828;-8.980;2024-01-16T02:29:05;26;23;
57411;PMS5003;43247;52.828;-8.980;2024-01-16T02:30:10;27;25;
57411;PMS5003;43247;52.828;-8.980;2024-01-16T02:31:10;26;26;
57411;PMS5003;43247;52.828;-8.980;2024-01-16T02:32:10;26;22;
57411;PMS5003;43247;52.828;-8.980;2024-01-16T02:33:10;20;20;
57411;PMS5003;43247;52.828;-8.980;2024-01-16T02:34:10;22;22;
57411;PMS5003;43247;52.828;-8.980;2024-01-16T02:35:11;22;19;
57411;PMS5003;43247;52.828;-8.980;2024-01-16T02:36:11;20;20;
57411;PMS5003;43247;52.828;-8.980;2024-01-16T02:37:11;27;23;
57411;PMS5003;43247;52.828;-8.980;2024-01-16T02:38:12;25;22;
57411;PMS5003;43247;52.828;-8.980;2024-01-16T02:39:12;20;18;
57411;PMS5003;43247;52.828;-8.980;2024-01-16T02:40:13;26;22;
57411;PMS5003;43247;52.828;-8.980;2024-01-16T02:41:13;30;28;
57411;PMS5003;43247;52.828;-8.980;2024-01-16T02:42:14;26;24;
57411;PMS5003;43247;52.828;-8.980;2024-01-16T02:43:14;24;23;
57411;PMS5003;43247;52.828;-8.980;2024-01-16T02:44:14;21;21;
57411;PMS5003;43247;52.828;-8.980;2024-01-16T02:45:15;24;22;
57411;PMS5003;43247;52.828;-8.980;2024-01-16T02:46:15;25;21;
57411;PMS5003;43247;52.828;-8.980;2024-01-16T02:47:15;20;20;
57411;PMS5003;43247;52.828;-8.980;2024-01-16T02:48:16;25;22;
57411;PMS5003;43247;52.828;-8.980;2024-01-16T02:49:16;27;24;
57411;PMS5003;43247;52.828;-8.980;2024-01-16T02:50:17;27;23;
57411;PMS5003;43247;52.828;-8.980;2024-01-16T02:51:18;24;24;
57411;PMS5003;43247;52.828;-8.980;2024-01-16T02:52:18;23;21;
57411;PMS5003;43247;52.828;-8.980;2024-01-16T02:53:18;26;22;
57411;PMS5003;43247;52.828;-8.980;2024-01-16T02:54:19;28;23;
57411;PMS5003;43247;52.828;-8.980;2024-01-16T02:55:19;22;22;
57411;PMS5003;43247;52.828;-8.980;2024-01-16T02:56:19;25;23;
57411;PMS5003;43247;52.828;-8.980;2024-01-16T02:57:19;21;19;
57411;PMS5003;43247;52.828;-8.980;2024-01-16T02:58:19;24;22;
57411;PMS5003;43247;52.828;-8.980;2024-01-16T02:59:20;22;22;
57411;PMS5003;43247;52.828;-8.980;2024-01-16T03:00:20;24;20;
57411;PMS5003;43247;52.828;-8.980;2024-01-16T03:01:21;21;20;
57411;PMS5003;43247;52.828;-8.980;2024-01-16T03:02:21;18;18;
57411;PMS5003;43247;52.828;-8.980;2024-01-16T03:03:22;19;18;
57411;PMS5003;43247;52.828;-8.980;2024-01-16T03:04:22;18;17;
57411;PMS5003;43247;52.828;-8.980;2024-01-16T03:05:23;20;20;
57411;PMS5003;43247;52.828;-8.980;2024-01-16T03:06:23;19;18;
57411;PMS5003;43247;52.828;-8.980;2024-01-16T03:07:24;19;18;
57411;PMS5003;43247;52.828;-8.980;2024-01-16T03:08:24;19;19;
57411;PMS5003;43247;52.828;-8.980;2024-01-16T03:09:24;19;18;
57411;PMS5003;43247;52.828;-8.980;2024-01-16T03:10:24;21;21;
57411;PMS5003;43247;52.828;-8.980;2024-01-16T03:11:24;19;17;
57411;PMS5003;43247;52.828;-8.980;2024-01-16T03:12:25;21;20;
57411;PMS5003;43247;52.828;-8.980;2024-01-16T03:13:26;24;23;
57411;PMS5003;43247;52.828;-8.980;2024-01-16T03:14:26;23;21;
57411;PMS5003;43247;52.828;-8.980;2024-01-16T03:15:28;20;19;
57411;PMS5003;43247;52.828;-8.980;2024-01-16T03:16:28;24;22;
57411;PMS5003;43247;52.828;-8.980;2024-01-16T03:17:28;19;18;
57411;PMS5003;43247;52.828;-8.980;2024-01-16T03:18:29;22;20;
57411;PMS5003;43247;52.828;-8.980;2024-01-16T03:19:29;21;17;
57411;PMS5003;43247;52.828;-8.980;2024-01-16T03:20:29;18;17;
57411;PMS5003;43247;52.828;-8.980;2024-01-16T03:21:30;17;17;
57411;PMS5003;43247;52.828;-8.980;2024-01-16T03:22:31;19;19;
57411;PMS5003;43247;52.828;-8.980;2024-01-16T03:23:31;18;18;
57411;PMS5003;43247;52.828;-8.980;2024-01-16T03:24:31;22;21;
57411;PMS5003;43247;52.828;-8.980;2024-01-16T03:25:32;20;20;
57411;PMS5003;43247;52.828;-8.980;2024-01-16T03:26:33;19;18;
57411;PMS5003;43247;52.828;-8.980;2024-01-16T03:27:33;16;16;
57411;PMS5003;43247;52.828;-8.980;2024-01-16T03:28:33;20;16;
57411;PMS5003;43247;52.828;-8.980;2024-01-16T03:29:33;18;16;
57411;PMS5003;43247;52.828;-8.980;2024-01-16T03:30:34;18;17;
57411;PMS5003;43247;52.828;-8.980;2024-01-16T03:31:35;16;15;
57411;PMS5003;43247;52.828;-8.980;2024-01-16T03:32:35;15;14;
57411;PMS5003;43247;52.828;-8.980;2024-01-16T03:33:36;19;18;
57411;PMS5003;43247;52.828;-8.980;2024-01-16T03:34:36;15;15;
57411;PMS5003;43247;52.828;-8.980;2024-01-16T03:35:36;15;14;
57411;PMS5003;43247;52.828;-8.980;2024-01-16T03:36:37;18;17;
57411;PMS5003;43247;52.828;-8.980;2024-01-16T03:37:37;16;16;
57411;PMS5003;43247;52.828;-8.980;2024-01-16T03:38:38;14;14;
57411;PMS5003;43247;52.828;-8.980;2024-01-16T03:39:38;14;14;
57411;PMS5003;43247;52.828;-8.980;2024-01-16T03:40:38;16;15;
57411;PMS5003;43247;52.828;-8.980;2024-01-16T03:41:38;16;15;
57411;PMS5003;43247;52.828;-8.980;2024-01-16T03:42:39;21;18;
57411;PMS5003;43247;52.828;-8.980;2024-01-16T03:43:39;16;16;
57411;PMS5003;43247;52.828;-8.980;2024-01-16T03:44:39;15;15;
57411;PMS5003;43247;52.828;-8.980;2024-01-16T03:45:40;15;13;
57411;PMS5003;43247;52.828;-8.980;2024-01-16T03:46:40;17;17;
57411;PMS5003;43247;52.828;-8.980;2024-01-16T03:47:40;16;15;
57411;PMS5003;43247;52.828;-8.980;2024-01-16T03:48:40;17;17;
57411;PMS5003;43247;52.828;-8.980;2024-01-16T03:49:41;18;16;
57411;PMS5003;43247;52.828;-8.980;2024-01-16T03:50:42;18;16;
57411;PMS5003;43247;52.828;-8.980;2024-01-16T03:51:42;14;14;
57411;PMS5003;43247;52.828;-8.980;2024-01-16T03:52:42;18;15;
57411;PMS5003;43247;52.828;-8.980;2024-01-16T03:53:42;13;13;
57411;PMS5003;43247;52.828;-8.980;2024-01-16T03:54:42;21;17;
57411;PMS5003;43247;52.828;-8.980;2024-01-16T03:55:43;15;14;
57411;PMS5003;43247;52.828;-8.980;2024-01-16T03:56:43;15;15;
57411;PMS5003;43247;52.828;-8.980;2024-01-16T03:57:44;16;15;
57411;PMS5003;43247;52.828;-8.980;2024-01-16T03:58:45;14;14;
57411;PMS5003;43247;52.828;-8.980;2024-01-16T03:59:45;15;14;
57411;PMS5003;43247;52.828;-8.980;2024-01-16T04:00:45;15;14;
57411;PMS5003;43247;52.828;-8.980;2024-01-16T04:01:45;14;14;
57411;PMS5003;43247;52.828;-8.980;2024-01-16T04:02:45;15;14;
57411;PMS5003;43247;52.828;-8.980;2024-01-16T04:03:46;14;13;
57411;PMS5003;43247;52.828;-8.980;2024-01-16T04:04:47;18;17;
57411;PMS5003;43247;52.828;-8.980;2024-01-16T04:05:47;22;19;
57411;PMS5003;43247;52.828;-8.980;2024-01-16T04:06:47;13;13;
57411;PMS5003;43247;52.828;-8.980;2024-01-16T04:07:48;19;17;
57411;PMS5003;43247;52.828;-8.980;2024-01-16T04:08:48;17;16;
57411;PMS5003;43247;52.828;-8.980;2024-01-16T04:09:48;16;13;
57411;PMS5003;43247;52.828;-8.980;2024-01-16T04:10:48;18;17;
57411;PMS5003;43247;52.828;-8.980;2024-01-16T04:11:49;19;16;
57411;PMS5003;43247;52.828;-8.980;2024-01-16T04:12:49;18;15;
57411;PMS5003;43247;52.828;-8.980;2024-01-16T04:13:49;19;16;
57411;PMS5003;43247;52.828;-8.980;2024-01-16T04:14:49;17;17;
57411;PMS5003;43247;52.828;-8.980;2024-01-16T04:15:50;18;17;
57411;PMS5003;43247;52.828;-8.980;2024-01-16T04:16:50;20;20;
57411;PMS5003;43247;52.828;-8.980;2024-01-16T04:17:51;19;18;
57411;PMS5003;43247;52.828;-8.980;2024-01-16T04:18:51;13;13;
57411;PMS5003;43247;52.828;-8.980;2024-01-16T04:19:51;20;19;
57411;PMS5003;43247;52.828;-8.980;2024-01-16T04:20:51;15;15;
57411;PMS5003;43247;52.828;-8.980;2024-01-16T04:21:52;19;18;
57411;PMS5003;43247;52.828;-8.980;2024-01-16T04:22:52;16;16;
57411;PMS5003;43247;52.828;-8.980;2024-01-16T04:23:52;14;13;
57411;PMS5003;43247;52.828;-8.980;2024-01-16T04:24:52;17;17;
57411;PMS5003;43247;52.828;-8.980;2024-01-16T04:25:53;15;15;
57411;PMS5003;43247;52.828;-8.980;2024-01-16T04:26:53;14;14;
57411;PMS5003;43247;52.828;-8.980;2024-01-16T04:27:54;16;15;
57411;PMS5003;43247;52.828;-8.980;2024-01-16T04:28:54;15;15;
57411;PMS5003;43247;52.828;-8.980;2024-01-16T04:29:55;14;13;
57411;PMS5003;43247;52.828;-8.980;2024-01-16T04:30:55;16;14;
57411;PMS5003;43247;52.828;-8.980;2024-01-16T04:31:56;17;16;
57411;PMS5003;43247;52.828;-8.980;2024-01-16T04:32:56;19;16;
57411;PMS5003;43247;52.828;-8.980;2024-01-16T04:33:57;19;17;
57411;PMS5003;43247;52.828;-8.980;2024-01-16T04:34:57;19;18;
57411;PMS5003;43247;52.828;-8.980;2024-01-16T04:35:58;17;16;
57411;PMS5003;43247;52.828;-8.980;2024-01-16T04:36:58;16;16;
57411;PMS5003;43247;52.828;-8.980;2024-01-16T04:37:58;16;15;
57411;PMS5003;43247;52.828;-8.980;2024-01-16T04:38:58;21;19;
57411;PMS5003;43247;52.828;-8.980;2024-01-16T04:39:59;19;19;
57411;PMS5003;43247;52.828;-8.980;2024-01-16T04:41:01;16;16;
57411;PMS5003;43247;52.828;-8.980;2024-01-16T04:42:01;16;16;
57411;PMS5003;43247;52.828;-8.980;2024-01-16T04:43:01;18;16;
57411;PMS5003;43247;52.828;-8.980;2024-01-16T04:44:01;17;17;
57411;PMS5003;43247;52.828;-8.980;2024-01-16T04:45:01;22;20;
57411;PMS5003;43247;52.828;-8.980;2024-01-16T04:46:02;18;16;
57411;PMS5003;43247;52.828;-8.980;2024-01-16T04:47:02;15;15;
57411;PMS5003;43247;52.828;-8.980;2024-01-16T04:48:03;22;20;
57411;PMS5003;43247;52.828;-8.980;2024-01-16T04:49:03;18;18;
57411;PMS5003;43247;52.828;-8.980;2024-01-16T04:50:04;19;16;
57411;PMS5003;43247;52.828;-8.980;2024-01-16T04:51:04;17;16;
57411;PMS5003;43247;52.828;-8.980;2024-01-16T04:52:04;20;18;
57411;PMS5003;43247;52.828;-8.980;2024-01-16T04:53:04;17;16;
57411;PMS5003;43247;52.828;-8.980;2024-01-16T04:54:05;17;16;
57411;PMS5003;43247;52.828;-8.980;2024-01-16T04:55:05;13;13;
57411;PMS5003;43247;52.828;-8.980;2024-01-16T04:56:05;16;15;
57411;PMS5003;43247;52.828;-8.980;2024-01-16T04:57:05;14;13;
57411;PMS5003;43247;52.828;-8.980;2024-01-16T04:58:06;15;13;
57411;PMS5003;43247;52.828;-8.980;2024-01-16T04:59:06;13;12;
57411;PMS5003;43247;52.828;-8.980;2024-01-16T05:00:07;17;15;
57411;PMS5003;43247;52.828;-8.980;2024-01-16T05:01:07;15;15;
57411;PMS5003;43247;52.828;-8.980;2024-01-16T05:02:07;18;17;
57411;PMS5003;43247;52.828;-8.980;2024-01-16T05:03:07;18;16;
57411;PMS5003;43247;52.828;-8.980;2024-01-16T05:04:08;17;15;
57411;PMS5003;43247;52.828;-8.980;2024-01-16T05:05:08;14;14;
57411;PMS5003;43247;52.828;-8.980;2024-01-16T05:06:12;19;16;
57411;PMS5003;43247;52.828;-8.980;2024-01-16T05:07:08;14;13;
57411;PMS5003;43247;52.828;-8.980;2024-01-16T05:08:09;16;15;
57411;PMS5003;43247;52.828;-8.980;2024-01-16T05:09:09;17;16;
57411;PMS5003;43247;52.828;-8.980;2024-01-16T05:10:10;17;15;
57411;PMS5003;43247;52.828;-8.980;2024-01-16T05:11:10;15;14;
57411;PMS5003;43247;52.828;-8.980;2024-01-16T05:12:10;15;14;
57411;PMS5003;43247;52.828;-8.980;2024-01-16T05:13:10;14;13;
57411;PMS5003;43247;52.828;-8.980;2024-01-16T05:14:11;14;13;
57411;PMS5003;43247;52.828;-8.980;2024-01-16T05:15:11;12;12;
57411;PMS5003;43247;52.828;-8.980;2024-01-16T05:16:11;13;13;
57411;PMS5003;43247;52.828;-8.980;2024-01-16T05:17:11;13;13;
57411;PMS5003;43247;52.828;-8.980;2024-01-16T05:18:12;15;15;
57411;PMS5003;43247;52.828;-8.980;2024-01-16T05:19:12;14;13;
57411;PMS5003;43247;52.828;-8.980;2024-01-16T05:20:12;11;11;
57411;PMS5003;43247;52.828;-8.980;2024-01-16T05:21:12;13;12;
57411;PMS5003;43247;52.828;-8.980;2024-01-16T05:22:12;10;10;
57411;PMS5003;43247;52.828;-8.980;2024-01-16T05:23:13;10;9;
57411;PMS5003;43247;52.828;-8.980;2024-01-16T05:24:13;9;9;
57411;PMS5003;43247;52.828;-8.980;2024-01-16T05:25:13;8;8;
57411;PMS5003;43247;52.828;-8.980;2024-01-16T05:26:13;10;8;
57411;PMS5003;43247;52.828;-8.980;2024-01-16T05:27:14;10;9;
57411;PMS5003;43247;52.828;-8.980;2024-01-16T05:28:14;13;11;
57411;PMS5003;43247;52.828;-8.980;2024-01-16T05:29:15;13;13;
57411;PMS5003;43247;52.828;-8.980;2024-01-16T05:30:15;8;8;
57411;PMS5003;43247;52.828;-8.980;2024-01-16T05:31:15;11;11;
57411;PMS5003;43247;52.828;-8.980;2024-01-16T05:32:15;10;10;
57411;PMS5003;43247;52.828;-8.980;2024-01-16T05:33:16;12;9;
57411;PMS5003;43247;52.828;-8.980;2024-01-16T05:34:16;10;10;
57411;PMS5003;43247;52.828;-8.980;2024-01-16T05:35:17;8;8;
57411;PMS5003;43247;52.828;-8.980;2024-01-16T05:36:17;11;9;
57411;PMS5003;43247;52.828;-8.980;2024-01-16T05:37:17;9;9;
57411;PMS5003;43247;52.828;-8.980;2024-01-16T05:38:17;9;9;
57411;PMS5003;43247;52.828;-8.980;2024-01-16T05:39:18;10;10;
57411;PMS5003;43247;52.828;-8.980;2024-01-16T05:40:18;8;8;
57411;PMS5003;43247;52.828;-8.980;2024-01-16T05:41:18;9;7;
57411;PMS5003;43247;52.828;-8.980;2024-01-16T05:42:18;9;8;
57411;PMS5003;43247;52.828;-8.980;2024-01-16T05:43:18;8;7;
57411;PMS5003;43247;52.828;-8.980;2024-01-16T05:44:19;8;8;
57411;PMS5003;43247;52.828;-8.980;2024-01-16T05:45:19;9;9;
57411;PMS5003;43247;52.828;-8.980;2024-01-16T05:46:19;8;8;
57411;PMS5003;43247;52.828;-8.980;2024-01-16T05:47:19;8;7;
57411;PMS5003;43247;52.828;-8.980;2024-01-16T05:48:20;8;8;
57411;PMS5003;43247;52.828;-8.980;2024-01-16T05:49:20;9;9;
57411;PMS5003;43247;52.828;-8.980;2024-01-16T05:50:20;7;7;
57411;PMS5003;43247;52.828;-8.980;2024-01-16T05:51:20;9;9;
57411;PMS5003;43247;52.828;-8.980;2024-01-16T05:52:21;7;7;
57411;PMS5003;43247;52.828;-8.980;2024-01-16T05:53:21;8;6;
57411;PMS5003;43247;52.828;-8.980;2024-01-16T05:54:21;8;8;
57411;PMS5003;43247;52.828;-8.980;2024-01-16T05:55:21;7;6;
57411;PMS5003;43247;52.828;-8.980;2024-01-16T05:56:21;6;6;
57411;PMS5003;43247;52.828;-8.980;2024-01-16T05:57:22;7;7;
57411;PMS5003;43247;52.828;-8.980;2024-01-16T05:58:22;7;7;
57411;PMS5003;43247;52.828;-8.980;2024-01-16T05:59:22;9;7;
57411;PMS5003;43247;52.828;-8.980;2024-01-16T06:00:22;7;7;
57411;PMS5003;43247;52.828;-8.980;2024-01-16T06:01:23;8;7;
57411;PMS5003;43247;52.828;-8.980;2024-01-16T06:02:23;8;8;
57411;PMS5003;43247;52.828;-8.980;2024-01-16T06:03:23;10;8;
57411;PMS5003;43247;52.828;-8.980;2024-01-16T06:04:23;8;7;
57411;PMS5003;43247;52.828;-8.980;2024-01-16T06:05:23;11;9;
57411;PMS5003;43247;52.828;-8.980;2024-01-16T06:06:24;7;7;
57411;PMS5003;43247;52.828;-8.980;2024-01-16T06:07:24;9;9;
57411;PMS5003;43247;52.828;-8.980;2024-01-16T06:08:24;9;9;
57411;PMS5003;43247;52.828;-8.980;2024-01-16T06:09:24;9;8;
57411;PMS5003;43247;52.828;-8.980;2024-01-16T06:10:25;8;7;
57411;PMS5003;43247;52.828;-8.980;2024-01-16T06:11:29;7;6;
57411;PMS5003;43247;52.828;-8.980;2024-01-16T06:12:25;8;8;
57411;PMS5003;43247;52.828;-8.980;2024-01-16T06:13:25;8;8;
57411;PMS5003;43247;52.828;-8.980;2024-01-16T06:14:26;9;8;
57411;PMS5003;43247;52.828;-8.980;2024-01-16T06:15:26;10;7;
57411;PMS5003;43247;52.828;-8.980;2024-01-16T06:16:26;13;9;
57411;PMS5003;43247;52.828;-8.980;2024-01-16T06:17:26;9;8;
57411;PMS5003;43247;52.828;-8.980;2024-01-16T06:18:27;8;8;
57411;PMS5003;43247;52.828;-8.980;2024-01-16T06:19:27;8;7;
57411;PMS5003;43247;52.828;-8.980;2024-01-16T06:20:27;10;8;
57411;PMS5003;43247;52.828;-8.980;2024-01-16T06:21:27;8;8;
57411;PMS5003;43247;52.828;-8.980;2024-01-16T06:22:27;8;8;
57411;PMS5003;43247;52.828;-8.980;2024-01-16T06:23:28;10;9;
57411;PMS5003;43247;52.828;-8.980;2024-01-16T06:24:28;11;10;
57411;PMS5003;43247;52.828;-8.980;2024-01-16T06:25:28;9;9;
57411;PMS5003;43247;52.828;-8.980;2024-01-16T06:26:28;10;10;
57411;PMS5003;43247;52.828;-8.980;2024-01-16T06:27:29;12;11;
57411;PMS5003;43247;52.828;-8.980;2024-01-16T06:28:29;10;9;
57411;PMS5003;43247;52.828;-8.980;2024-01-16T06:29:30;11;11;
57411;PMS5003;43247;52.828;-8.980;2024-01-16T06:30:30;10;9;
57411;PMS5003;43247;52.828;-8.980;2024-01-16T06:31:30;14;11;
57411;PMS5003;43247;52.828;-8.980;2024-01-16T06:32:30;13;11;
57411;PMS5003;43247;52.828;-8.980;2024-01-16T06:33:30;10;10;
57411;PMS5003;43247;52.828;-8.980;2024-01-16T06:34:31;10;10;
57411;PMS5003;43247;52.828;-8.980;2024-01-16T06:35:31;13;12;
57411;PMS5003;43247;52.828;-8.980;2024-01-16T06:36:31;12;12;